createdAt,value
2023-04-11T00:01:46.908Z,19.50
2023-04-11T00:04:15.183Z,18.43
2023-04-11T00:06:43.222Z,19.13
2023-04-11T00:09:12.440Z,18.97
2023-04-11T00:11:41.754Z,20.47
2023-04-11T00:14:09.685Z,19.23
2023-04-11T00:16:37.923Z,19.57
2023-04-11T00:19:09.427Z,18.67
2023-04-11T00:21:40.122Z,19.13
2023-04-11T00:24:09.016Z,18.33
2023-04-11T00:26:37.210Z,19.27
2023-04-11T00:29:06.566Z,19.83
2023-04-11T00:31:34.642Z,19.07
2023-04-11T00:34:02.717Z,19.00
2023-04-11T00:36:31.784Z,19.20
2023-04-11T00:39:01.360Z,19.37
2023-04-11T00:41:29.407Z,19.20
2023-04-11T00:43:57.796Z,19.40
2023-04-11T00:46:28.041Z,19.10
2023-04-11T00:48:56.501Z,18.63
2023-04-11T00:51:25.012Z,19.07
2023-04-11T00:53:53.050Z,19.50
2023-04-11T00:56:22.235Z,19.73
2023-04-11T00:58:50.389Z,19.50
2023-04-11T01:01:20.026Z,19.13
2023-04-11T01:03:49.721Z,18.90
2023-04-11T01:06:20.800Z,19.03
2023-04-11T01:08:49.164Z,19.47
2023-04-11T01:11:20.304Z,19.50
2023-04-11T01:13:49.124Z,19.73
2023-04-11T01:16:21.396Z,19.27
2023-04-11T01:18:51.781Z,19.53
2023-04-11T01:21:20.899Z,19.13
2023-04-11T01:23:52.911Z,20.20
2023-04-11T01:26:21.167Z,19.40
2023-04-11T01:28:50.191Z,19.30
2023-04-11T01:31:18.246Z,20.10
2023-04-11T01:33:46.365Z,19.47
2023-04-11T01:36:14.533Z,19.60
2023-04-11T01:38:42.674Z,19.57
2023-04-11T01:41:13.077Z,19.80
2023-04-11T01:43:41.431Z,19.90
2023-04-11T01:46:11.199Z,20.00
2023-04-11T01:48:39.314Z,19.37
2023-04-11T01:51:08.409Z,19.47
2023-04-11T01:53:36.414Z,19.47
2023-04-11T01:56:04.664Z,19.70
2023-04-11T01:58:34.030Z,19.30
2023-04-11T02:01:02.057Z,19.87
2023-04-11T02:03:30.348Z,19.40
2023-04-11T02:05:58.685Z,19.67
2023-04-11T02:08:26.816Z,19.63
2023-04-11T02:10:54.964Z,20.40
2023-04-11T02:13:22.934Z,19.80
2023-04-11T02:15:52.292Z,20.97
2023-04-11T02:18:20.342Z,20.30
2023-04-11T02:20:48.282Z,20.43
2023-04-11T02:23:16.280Z,20.50
2023-04-11T02:25:44.387Z,21.33
2023-04-11T02:28:12.327Z,20.10
2023-04-11T02:30:40.375Z,19.60
2023-04-11T02:33:09.714Z,20.53
2023-04-11T02:35:37.652Z,19.83
2023-04-11T02:38:05.603Z,19.80
2023-04-11T02:40:33.556Z,20.40
2023-04-11T02:43:01.670Z,19.73
2023-04-11T02:45:29.693Z,19.60
2023-04-11T02:47:58.441Z,18.83
2023-04-11T02:50:27.890Z,20.00
2023-04-11T02:52:56.040Z,19.20
2023-04-11T02:55:24.605Z,19.20
2023-04-11T02:57:53.155Z,19.67
2023-04-11T03:00:22.182Z,19.33
2023-04-11T03:02:50.250Z,18.90
2023-04-11T03:05:18.336Z,19.70
2023-04-11T03:07:47.960Z,19.67
2023-04-11T03:10:15.955Z,20.20
2023-04-11T03:12:43.893Z,19.13
2023-04-11T03:15:15.553Z,20.10
2023-04-11T03:17:43.753Z,20.07
2023-04-11T03:20:13.723Z,19.20
2023-04-11T03:22:41.976Z,19.60
2023-04-11T03:25:11.575Z,18.57
2023-04-11T03:27:39.541Z,18.97
2023-04-11T03:30:08.794Z,19.10
2023-04-11T03:32:36.876Z,19.07
2023-04-11T03:35:05.574Z,18.53
2023-04-11T03:37:33.547Z,18.63
2023-04-11T03:40:01.591Z,19.00
2023-04-11T03:42:30.908Z,18.70
2023-04-11T03:44:58.852Z,18.70
2023-04-11T03:47:26.869Z,19.40
2023-04-11T03:49:54.843Z,18.83
2023-04-11T03:52:22.784Z,19.07
2023-04-11T03:54:50.971Z,18.37
2023-04-11T03:57:18.948Z,19.03
2023-04-11T03:59:48.410Z,19.60
2023-04-11T04:02:16.769Z,18.67
2023-04-11T04:04:48.726Z,19.40
2023-04-11T04:07:18.082Z,19.13
2023-04-11T04:09:46.116Z,20.23
2023-04-11T04:12:14.134Z,20.50
2023-04-11T04:14:42.070Z,18.87
2023-04-11T04:17:11.502Z,17.93
2023-04-11T04:19:39.450Z,18.57
2023-04-11T04:22:11.695Z,19.20
2023-04-11T04:24:42.017Z,20.10
2023-04-11T04:27:10.306Z,20.13
2023-04-11T04:29:39.552Z,19.03
2023-04-11T04:32:11.078Z,18.10
2023-04-11T04:34:46.910Z,19.80
2023-04-11T04:37:21.772Z,17.87
2023-04-11T04:39:54.316Z,18.10
2023-04-11T04:42:23.852Z,18.50
2023-04-11T04:45:00.524Z,19.40
2023-04-11T04:47:32.415Z,19.63
2023-04-11T04:50:01.945Z,19.70
2023-04-11T04:52:30.784Z,19.63
2023-04-11T04:54:59.390Z,19.17
2023-04-11T04:57:28.197Z,18.30
2023-04-11T04:59:56.565Z,17.30
2023-04-11T05:02:25.498Z,18.30
2023-04-11T05:04:54.532Z,18.67
2023-04-11T05:07:23.835Z,17.90
2023-04-11T05:09:51.793Z,36.63
2023-04-11T05:12:21.707Z,23.70
2023-04-11T05:14:51.009Z,23.70
2023-04-11T05:17:19.137Z,23.00
2023-04-11T05:19:47.073Z,23.83
2023-04-11T05:22:15.826Z,26.50
2023-04-11T05:24:45.248Z,22.53
2023-04-11T05:27:13.535Z,25.10
2023-04-11T05:29:41.590Z,36.80
2023-04-11T05:32:10.464Z,41.27
2023-04-11T05:34:52.071Z,39.97
2023-04-11T05:37:20.036Z,37.10
2023-04-11T05:39:50.257Z,33.73
2023-04-11T05:42:18.729Z,30.40
2023-04-11T05:44:46.673Z,42.13
2023-04-11T05:47:14.662Z,36.83
2023-04-11T05:49:43.443Z,36.27
2023-04-11T05:52:11.550Z,40.17
2023-04-11T05:54:39.597Z,36.63
2023-04-11T05:57:09.060Z,39.37
2023-04-11T05:59:37.819Z,38.30
2023-04-11T06:02:05.847Z,48.20
2023-04-11T06:04:34.116Z,59.53
2023-04-11T06:07:04.038Z,58.80
2023-04-11T06:09:34.053Z,61.33
2023-04-11T06:12:02.489Z,56.20
2023-04-11T06:14:32.232Z,56.47
2023-04-11T06:17:00.464Z,55.87
2023-04-11T06:19:28.485Z,51.97
2023-04-11T06:21:56.501Z,52.17
2023-04-11T06:24:37.069Z,61.43
2023-04-11T06:27:05.788Z,48.10
2023-04-11T06:29:35.221Z,56.50
2023-04-11T06:32:03.281Z,56.28
2023-04-11T06:34:31.279Z,55.27
2023-04-11T06:36:59.302Z,34.37
2023-04-11T06:39:27.347Z,56.27
2023-04-11T06:41:56.518Z,57.10
2023-04-11T06:44:24.602Z,61.35
2023-04-11T06:46:54.009Z,58.57
2023-04-11T06:49:22.205Z,50.90
2023-04-11T06:51:50.368Z,58.87
2023-04-11T06:54:18.746Z,51.27
2023-04-11T06:56:47.404Z,27.43
2023-04-11T06:59:15.737Z,26.73
2023-04-11T07:01:43.814Z,28.90
2023-04-11T07:04:13.390Z,26.00
2023-04-11T07:06:41.593Z,28.73
2023-04-11T07:09:10.605Z,27.67
2023-04-11T07:11:39.287Z,32.17
2023-04-11T07:14:07.317Z,31.52
2023-04-11T07:16:35.338Z,29.37
2023-04-11T07:19:03.509Z,28.07
2023-04-11T07:21:33.416Z,28.98
2023-04-11T07:24:03.614Z,39.83
2023-04-11T07:26:32.700Z,41.30
2023-04-11T07:29:00.969Z,36.90
2023-04-11T07:31:28.979Z,42.87
2023-04-11T07:33:57.138Z,40.70
2023-04-11T07:36:25.235Z,34.37
2023-04-11T07:38:54.537Z,35.87
2023-04-11T07:41:22.580Z,31.27
2023-04-11T07:43:50.629Z,46.10
2023-04-11T07:46:18.765Z,41.00
2023-04-11T07:48:46.854Z,55.83
2023-04-11T07:51:14.850Z,40.37
2023-04-11T07:53:42.981Z,43.70
2023-04-11T07:56:12.586Z,39.65
2023-04-11T07:58:40.588Z,47.33
2023-04-11T08:01:20.112Z,47.33
2023-04-11T08:03:48.157Z,48.97
2023-04-11T08:06:16.321Z,57.60
2023-04-11T08:08:44.347Z,44.90
2023-04-11T08:11:13.661Z,53.72
2023-04-11T08:13:41.581Z,37.72
2023-04-11T08:16:11.779Z,36.00
2023-04-11T08:18:42.309Z,37.85
2023-04-11T08:21:12.219Z,36.63
2023-04-11T08:23:42.339Z,35.00
2023-04-11T08:26:12.942Z,35.67
2023-04-11T08:28:43.524Z,33.47
2023-04-11T08:31:13.223Z,33.40
2023-04-11T08:33:41.618Z,28.35
2023-04-11T08:36:11.069Z,29.58
2023-04-11T08:38:40.236Z,38.55
2023-04-11T08:41:08.425Z,35.92
2023-04-11T08:43:36.996Z,23.98
2023-04-11T08:46:07.882Z,31.90
2023-04-11T08:48:36.194Z,36.10
2023-04-11T08:51:04.245Z,38.80
2023-04-11T08:53:33.008Z,38.72
2023-04-11T08:56:00.976Z,44.47
2023-04-11T08:58:29.034Z,45.33
2023-04-11T09:00:57.052Z,55.25
2023-04-11T09:03:26.383Z,50.05
2023-04-11T09:05:59.303Z,47.88
2023-04-11T09:08:39.370Z,51.53
2023-04-11T09:11:07.509Z,53.20
2023-04-11T09:13:35.575Z,52.95
2023-04-11T09:16:09.045Z,49.42
2023-04-11T09:18:39.841Z,53.33
2023-04-11T09:21:09.541Z,51.20
2023-04-11T09:23:38.170Z,50.90
2023-04-11T09:26:07.489Z,50.08
2023-04-11T09:28:42.794Z,52.25
2023-04-11T09:31:13.080Z,48.55
2023-04-11T09:33:54.631Z,49.90
2023-04-11T09:36:24.848Z,57.85
2023-04-11T09:38:52.910Z,51.72
2023-04-11T09:41:31.980Z,56.05
2023-04-11T09:44:00.659Z,75.05
2023-04-11T09:46:28.968Z,55.65
2023-04-11T09:48:58.421Z,49.33
2023-04-11T09:53:58.527Z,47.83
2023-04-11T09:56:27.754Z,45.70
2023-04-11T09:58:58.193Z,51.22
2023-04-11T10:01:26.524Z,42.40
2023-04-11T10:03:54.702Z,45.13
2023-04-11T10:06:33.934Z,42.60
2023-04-11T10:09:10.985Z,48.28
2023-04-11T10:11:42.620Z,47.92
2023-04-11T10:14:10.777Z,48.38
2023-04-11T10:17:21.146Z,48.58
2023-04-11T10:19:56.663Z,46.65
2023-04-11T10:23:01.595Z,49.75
2023-04-11T10:25:30.026Z,48.80
2023-04-11T10:28:01.099Z,30.88
2023-04-11T10:30:59.841Z,29.73
2023-04-11T10:33:28.152Z,42.83
2023-04-11T10:36:02.090Z,27.85
2023-04-11T10:38:51.539Z,29.17
2023-04-11T10:41:31.716Z,36.83
2023-04-11T10:44:18.522Z,28.45
2023-04-11T10:46:48.470Z,27.58
2023-04-11T10:49:35.396Z,28.88
2023-04-11T10:52:21.014Z,37.80
2023-04-11T10:54:51.273Z,26.40
2023-04-11T10:57:19.864Z,33.20
2023-04-11T11:00:01.126Z,35.28
2023-04-11T11:02:43.158Z,45.50
2023-04-11T11:05:22.462Z,33.75
2023-04-11T11:07:55.130Z,28.50
2023-04-11T11:10:41.807Z,47.03
2023-04-11T11:13:10.870Z,27.85
2023-04-11T11:15:39.077Z,25.90
2023-04-11T11:18:09.702Z,27.80
2023-04-11T11:20:38.578Z,24.50
2023-04-11T11:23:07.788Z,22.55
2023-04-11T11:25:36.232Z,24.98
2023-04-11T11:28:07.364Z,27.70
2023-04-11T11:30:36.716Z,35.15
2023-04-11T11:33:17.891Z,28.60
2023-04-11T11:35:52.050Z,30.35
2023-04-11T11:38:20.784Z,32.50
2023-04-11T11:40:49.457Z,36.80
2023-04-11T11:43:18.981Z,30.85
2023-04-11T11:45:47.415Z,30.92
2023-04-11T11:48:23.085Z,35.40
2023-04-11T11:50:57.834Z,39.90
2023-04-11T11:53:26.805Z,46.03
2023-04-11T11:55:55.191Z,36.05
2023-04-11T11:58:24.615Z,36.17
2023-04-11T12:00:53.669Z,29.88
2023-04-11T12:03:24.269Z,28.60
2023-04-11T12:05:58.177Z,34.22
2023-04-11T12:08:26.344Z,33.30
2023-04-11T12:10:54.717Z,47.08
2023-04-11T12:13:27.250Z,33.63
2023-04-11T12:15:56.764Z,33.10
2023-04-11T12:18:26.051Z,34.78
2023-04-11T12:20:54.186Z,34.17
2023-04-11T12:23:22.696Z,36.67
2023-04-11T12:25:52.747Z,30.23
2023-04-11T12:28:21.555Z,28.60
2023-04-11T12:30:50.924Z,26.08
2023-04-11T12:33:19.117Z,28.85
2023-04-11T12:35:47.169Z,33.20
2023-04-11T12:38:17.655Z,30.75
2023-04-11T12:40:46.556Z,33.03
2023-04-11T12:43:14.732Z,28.77
2023-04-11T12:45:42.690Z,29.83
2023-04-11T12:48:11.971Z,33.80
2023-04-11T12:50:39.930Z,36.60
2023-04-11T12:53:08.055Z,26.67
2023-04-11T12:55:36.165Z,28.25
2023-04-11T12:58:04.220Z,33.58
2023-04-11T13:00:32.272Z,37.22
2023-04-11T13:03:01.097Z,28.80
2023-04-11T13:05:30.881Z,27.73
2023-04-11T13:07:58.838Z,30.35
2023-04-11T13:10:26.812Z,32.50
2023-04-11T13:12:58.597Z,31.58
2023-04-11T13:15:28.652Z,31.65
2023-04-11T13:17:56.852Z,34.63
2023-04-11T13:20:25.017Z,35.22
2023-04-11T13:22:54.367Z,32.65
2023-04-11T13:25:22.500Z,32.35
2023-04-11T13:27:50.469Z,33.45
2023-04-11T13:30:18.609Z,29.90
2023-04-11T13:32:46.650Z,31.92
2023-04-11T13:35:14.734Z,27.92
2023-04-11T13:37:42.935Z,28.88
2023-04-11T13:40:13.232Z,28.17
2023-04-11T13:42:41.205Z,31.08
2023-04-11T13:45:10.107Z,38.78
2023-04-11T13:47:38.853Z,29.95
2023-04-11T13:50:10.764Z,33.28
2023-04-11T13:52:38.765Z,32.40
2023-04-11T13:55:07.789Z,32.53
2023-04-11T13:57:37.263Z,33.63
2023-04-11T14:00:11.876Z,35.63
2023-04-11T14:02:41.038Z,42.40
2023-04-11T14:05:11.279Z,44.22
2023-04-11T14:07:39.261Z,37.88
2023-04-11T14:10:08.230Z,51.05
2023-04-11T14:12:37.649Z,40.10
2023-04-11T14:15:07.791Z,48.38
2023-04-11T14:17:35.862Z,26.27
2023-04-11T14:20:07.006Z,25.27
2023-04-11T14:22:34.984Z,28.20
2023-04-11T14:25:02.900Z,31.02
2023-04-11T14:27:31.043Z,29.10
2023-04-11T14:30:00.334Z,29.90
2023-04-11T14:32:28.443Z,40.03
2023-04-11T14:34:56.519Z,35.58
2023-04-11T14:37:24.511Z,34.03
2023-04-11T14:39:52.569Z,39.33
2023-04-11T14:42:20.677Z,31.67
2023-04-11T14:44:50.259Z,39.72
2023-04-11T14:47:19.628Z,31.60
2023-04-11T14:49:47.715Z,19.70
2023-04-11T14:52:15.689Z,19.58
2023-04-11T14:54:43.650Z,18.20
2023-04-11T14:57:11.586Z,18.65
2023-04-11T14:59:39.800Z,20.25
2023-04-11T15:02:07.878Z,20.70
2023-04-11T15:04:37.319Z,20.52
2023-04-11T15:07:05.581Z,19.60
2023-04-11T15:09:33.641Z,20.60
2023-04-11T15:12:02.222Z,19.80
2023-04-11T15:14:30.296Z,20.08
2023-04-11T15:16:58.297Z,19.83
2023-04-11T15:19:26.296Z,18.55
2023-04-11T15:21:55.634Z,18.73
2023-04-11T15:24:23.578Z,19.23
2023-04-11T15:26:51.509Z,17.45
2023-04-11T15:29:19.448Z,18.83
2023-04-11T15:31:47.709Z,17.45
2023-04-11T15:34:15.660Z,19.05
2023-04-11T15:36:45.184Z,24.23
2023-04-11T15:39:14.535Z,18.25
2023-04-11T15:41:42.481Z,19.10
2023-04-11T15:44:10.585Z,18.05
2023-04-11T15:46:39.603Z,18.05
2023-04-11T15:49:07.707Z,18.33
2023-04-11T15:51:35.639Z,18.20
2023-04-11T15:54:04.971Z,17.35
2023-04-11T15:56:34.448Z,18.85
2023-04-11T15:59:02.461Z,18.15
2023-04-11T16:01:31.015Z,15.98
2023-04-11T16:03:59.541Z,16.85
2023-04-11T16:06:27.830Z,19.27
2023-04-11T16:08:56.112Z,19.05
2023-04-11T16:11:26.356Z,20.13
2023-04-11T16:13:56.430Z,18.38
2023-04-11T16:16:24.655Z,20.17
2023-04-11T16:18:52.685Z,19.65
2023-04-11T16:21:20.790Z,19.33
2023-04-11T16:23:48.750Z,17.88
2023-04-11T16:26:16.940Z,17.73
2023-04-11T16:28:44.916Z,19.10
2023-04-11T16:31:19.359Z,18.85
2023-04-11T16:33:47.360Z,18.10
2023-04-11T16:36:15.589Z,19.20
2023-04-11T16:38:43.830Z,19.65
2023-04-11T16:41:11.786Z,17.75
2023-04-11T16:43:40.991Z,19.27
2023-04-11T16:46:14.947Z,17.25
2023-04-11T16:48:43.535Z,17.52
2023-04-11T16:51:12.587Z,17.38
2023-04-11T16:53:41.916Z,18.52
2023-04-11T16:56:10.664Z,17.95
2023-04-11T16:58:38.592Z,18.10
2023-04-11T17:01:07.418Z,18.23
2023-04-11T17:03:37.029Z,18.90
2023-04-11T17:06:12.831Z,19.35
2023-04-11T17:08:42.309Z,19.48
2023-04-11T17:11:11.509Z,19.05
2023-04-11T17:13:40.032Z,19.90
2023-04-11T17:16:10.383Z,19.05
2023-04-11T17:18:40.852Z,18.50
2023-04-11T17:21:09.133Z,18.92
2023-04-11T17:23:43.169Z,18.98
2023-04-11T17:26:12.130Z,18.83
2023-04-11T17:28:40.831Z,18.98
2023-04-11T17:31:12.943Z,17.85
2023-04-11T17:33:42.762Z,17.98
2023-04-11T17:36:12.334Z,18.00
2023-04-11T17:38:42.125Z,19.27
2023-04-11T17:41:14.890Z,19.63
2023-04-11T17:43:43.688Z,19.35
2023-04-11T17:46:12.423Z,29.77
2023-04-11T17:48:42.090Z,19.98
2023-04-11T17:51:10.066Z,21.40
2023-04-11T17:53:38.199Z,19.30
2023-04-11T17:56:07.151Z,19.90
2023-04-11T17:58:35.462Z,19.77
2023-04-11T18:01:04.619Z,21.38
2023-04-11T18:03:35.628Z,19.97
2023-04-11T18:06:07.708Z,20.38
2023-04-11T18:08:50.005Z,19.60
2023-04-11T18:11:19.486Z,21.80
2023-04-11T18:13:53.865Z,21.07
2023-04-11T18:16:22.669Z,21.70
2023-04-11T18:18:50.660Z,22.87
2023-04-11T18:21:21.571Z,22.83
2023-04-11T18:23:49.546Z,21.93
2023-04-11T18:26:17.503Z,22.60
2023-04-11T18:28:45.520Z,21.83
2023-04-11T18:31:13.481Z,21.90
2023-04-11T18:33:44.568Z,21.83
2023-04-11T18:36:13.628Z,21.90
2023-04-11T18:38:43.960Z,20.03
2023-04-11T18:41:11.941Z,20.27
2023-04-11T18:43:40.750Z,20.30
2023-04-11T18:46:09.762Z,19.77
2023-04-11T18:48:37.898Z,20.07
2023-04-11T18:51:06.638Z,19.70
2023-04-11T18:53:36.723Z,19.03
2023-04-11T18:56:07.242Z,19.40
2023-04-11T18:58:39.661Z,18.90
2023-04-11T19:01:15.638Z,18.60
2023-04-11T19:03:46.355Z,18.37
2023-04-11T19:06:14.761Z,18.63
2023-04-11T19:08:42.729Z,18.50
2023-04-11T19:11:12.159Z,18.67
2023-04-11T19:13:41.099Z,18.90
2023-04-11T19:16:09.338Z,17.70
2023-04-11T19:18:37.807Z,18.07
2023-04-11T19:21:06.503Z,17.90
2023-04-11T19:23:34.708Z,17.90
2023-04-11T19:26:03.010Z,18.03
2023-04-11T19:28:32.661Z,17.90
2023-04-11T19:31:00.597Z,17.67
2023-04-11T19:33:28.688Z,17.67
2023-04-11T19:35:57.039Z,17.97
2023-04-11T19:38:25.285Z,18.40
2023-04-11T19:40:53.239Z,18.40
2023-04-11T19:43:22.001Z,18.77
2023-04-11T19:45:51.778Z,18.40
2023-04-11T19:48:19.834Z,18.20
2023-04-11T19:50:50.041Z,18.20
2023-04-11T19:53:18.018Z,18.80
2023-04-11T19:55:46.486Z,19.00
2023-04-11T19:58:14.574Z,19.20
2023-04-11T20:00:42.871Z,18.53
2023-04-11T20:03:14.702Z,19.50
2023-04-11T20:05:43.530Z,18.53
2023-04-11T20:08:11.669Z,18.17
2023-04-11T20:10:40.480Z,19.03
2023-04-11T20:13:08.904Z,18.63
2023-04-11T20:15:36.876Z,19.00
2023-04-11T20:18:05.638Z,18.73
2023-04-11T20:20:36.951Z,18.77
2023-04-11T20:23:06.086Z,18.13
2023-04-11T20:25:34.481Z,17.33
2023-04-11T20:28:02.776Z,18.00
2023-04-11T20:30:30.912Z,17.38
2023-04-11T20:32:58.916Z,17.02
2023-04-11T20:35:27.189Z,17.67
2023-04-11T20:37:56.541Z,17.48
2023-04-11T20:40:24.725Z,17.60
2023-04-11T20:42:52.767Z,17.73
2023-04-11T20:45:22.008Z,17.98
2023-04-11T20:47:50.582Z,17.95
2023-04-11T20:50:19.535Z,18.08
2023-04-11T20:52:52.367Z,18.38
2023-04-11T20:55:21.807Z,17.90
2023-04-11T20:57:49.847Z,18.25
2023-04-11T21:00:19.121Z,18.50
2023-04-11T21:02:50.229Z,17.60
2023-04-11T21:05:19.936Z,17.90
2023-04-11T21:07:47.918Z,18.20
2023-04-11T21:10:16.753Z,19.50
2023-04-11T21:12:51.254Z,18.02
2023-04-11T21:15:19.923Z,17.92
2023-04-11T21:17:48.694Z,18.77
2023-04-11T21:20:20.464Z,18.10
2023-04-11T21:22:49.552Z,17.60
2023-04-11T21:25:18.044Z,18.02
2023-04-11T21:27:47.959Z,18.02
2023-04-11T21:30:16.151Z,17.88
2023-04-11T21:32:44.141Z,17.65
2023-04-11T21:35:13.025Z,17.33
2023-04-11T21:37:41.184Z,18.17
2023-04-11T21:40:10.156Z,18.20
2023-04-11T21:42:38.299Z,17.60
2023-04-11T21:45:09.423Z,17.83
2023-04-11T21:47:37.650Z,17.92
2023-04-11T21:50:06.143Z,17.67
2023-04-11T21:52:34.369Z,18.23
2023-04-11T21:55:02.355Z,17.95
2023-04-11T21:57:33.751Z,18.45
2023-04-11T22:00:01.986Z,18.13
2023-04-11T22:02:31.439Z,17.77
2023-04-11T22:05:06.608Z,18.55
2023-04-11T22:07:39.380Z,17.70
2023-04-11T22:10:11.854Z,18.00
2023-04-11T22:12:40.234Z,17.98
2023-04-11T22:15:11.132Z,18.15
2023-04-11T22:17:42.409Z,17.80
2023-04-11T22:20:11.561Z,17.80
2023-04-11T22:22:39.513Z,18.00
2023-04-11T22:25:09.973Z,17.90
2023-04-11T22:27:38.517Z,18.00
2023-04-11T22:30:08.802Z,17.40
2023-04-11T22:32:37.128Z,17.57
2023-04-11T22:35:08.272Z,17.77
2023-04-11T22:37:36.279Z,17.70
2023-04-11T22:40:06.072Z,18.37
2023-04-11T22:42:34.033Z,18.60
2023-04-11T22:45:02.036Z,18.33
2023-04-11T22:47:32.573Z,18.40
2023-04-11T22:50:01.522Z,18.97
2023-04-11T22:52:30.929Z,18.17
2023-04-11T22:54:58.995Z,17.90
2023-04-11T22:57:26.911Z,17.83
2023-04-11T22:59:54.917Z,17.63
2023-04-11T23:02:24.514Z,18.47
2023-04-11T23:04:52.581Z,17.48
2023-04-11T23:07:20.536Z,17.67
2023-04-11T23:09:49.972Z,17.80
2023-04-11T23:12:17.928Z,17.45
2023-04-11T23:14:46.565Z,17.90
2023-04-11T23:17:14.547Z,17.70
2023-04-11T23:19:42.520Z,17.67
2023-04-11T23:22:10.521Z,18.60
2023-04-11T23:24:38.467Z,17.47
2023-04-11T23:27:08.581Z,17.80
2023-04-11T23:29:37.107Z,17.08
2023-04-11T23:32:05.268Z,17.20
2023-04-11T23:34:33.262Z,18.27
2023-04-11T23:37:01.215Z,17.73
2023-04-11T23:39:29.511Z,17.90
2023-04-11T23:41:57.451Z,17.70
2023-04-11T23:44:27.262Z,17.60
2023-04-11T23:46:55.350Z,18.30
2023-04-11T23:49:23.312Z,17.57
2023-04-11T23:51:51.262Z,17.70
2023-04-11T23:54:19.254Z,17.17
2023-04-11T23:56:47.205Z,17.30
2023-04-11T23:59:15.501Z,17.50
